Time;durP1;ratioP1;P1;durP2;ratioP2;P2;SDS_P1;SDS_P2;PMS_P1;PMS_P2;Temp;Humidity;BMP_temperature;BMP_pressure;BME280_temperature;BME280_humidity;BME280_pressure;Samples;Min_cycle;Max_cycle;Signal;HPM_P1;HPM_P2
2022/10/07 00:01:30;;;;;;;7.10;3.33;;;;;;;12.81;100.00;99333.50;5102165;28;20753;-74
2022/10/07 00:03:57;;;;;;;5.73;3.67;;;;;;;12.86;100.00;99332.31;5101711;28;20269;-74
2022/10/07 00:06:23;;;;;;;5.60;3.17;;;;;;;12.85;100.00;99324.44;5101702;28;20277;-74
2022/10/07 00:08:52;;;;;;;5.77;3.10;;;;;;;12.81;100.00;99329.06;5103873;28;20297;-74
2022/10/07 00:11:21;;;;;;;4.70;2.97;;;;;;;12.80;100.00;99332.66;5103648;28;20268;-74
2022/10/07 00:13:49;;;;;;;4.40;3.20;;;;;;;12.83;100.00;99326.34;5101484;28;20258;-74
2022/10/07 00:16:19;;;;;;;7.57;3.67;;;;;;;12.85;100.00;99327.09;5101413;28;20263;-74
2022/10/07 00:18:48;;;;;;;3.30;2.70;;;;;;;12.83;100.00;99328.97;5104711;28;20754;-74
2022/10/07 00:21:16;;;;;;;7.17;3.50;;;;;;;12.83;100.00;99318.38;5102868;28;20662;-74
2022/10/07 00:23:44;;;;;;;4.80;3.10;;;;;;;12.79;100.00;99320.34;5101547;28;20376;-74
2022/10/07 00:26:13;;;;;;;3.97;2.73;;;;;;;12.80;100.00;99313.22;5101515;28;20226;-74
2022/10/07 00:28:40;;;;;;;3.80;2.77;;;;;;;12.82;100.00;99316.63;5103613;28;20277;-74
2022/10/07 00:31:09;;;;;;;4.80;3.67;;;;;;;12.86;100.00;99315.53;5102519;28;20276;-75
2022/10/07 00:33:38;;;;;;;4.43;2.90;;;;;;;12.89;100.00;99313.53;5101519;28;20260;-74
2022/10/07 00:36:08;;;;;;;5.07;3.10;;;;;;;12.93;100.00;99311.53;5114814;28;20641;-74
2022/10/07 00:38:35;;;;;;;4.87;2.90;;;;;;;12.95;100.00;99307.03;5112062;28;20226;-74
2022/10/07 00:41:02;;;;;;;2.97;2.60;;;;;;;12.98;100.00;99301.56;5115658;28;20268;-74
2022/10/07 00:43:31;;;;;;;2.93;2.63;;;;;;;13.00;100.00;99297.88;5115735;28;20261;-74
2022/10/07 00:46:00;;;;;;;5.50;2.90;;;;;;;13.01;100.00;99293.41;5115506;28;20257;-74
2022/10/07 00:48:30;;;;;;;5.27;3.10;;;;;;;13.03;100.00;99288.88;5111864;28;20284;-74
2022/10/07 00:51:00;;;;;;;3.63;2.63;;;;;;;13.04;100.00;99288.78;5105033;28;20319;-74
2022/10/07 00:53:33;;;;;;;4.63;2.93;;;;;;;13.07;100.00;99282.44;5103249;28;20593;-74
2022/10/07 00:56:02;;;;;;;4.87;2.97;;;;;;;13.07;100.00;99277.13;5104534;28;20288;-74
2022/10/07 00:58:32;;;;;;;4.83;3.00;;;;;;;13.08;100.00;99279.66;5107415;28;20253;-74
2022/10/07 01:00:59;;;;;;;4.70;3.20;;;;;;;13.11;100.00;99278.63;5104933;28;20254;-73
2022/10/07 01:03:26;;;;;;;4.00;2.90;;;;;;;13.12;100.00;99275.88;5104871;28;20304;-74
2022/10/07 01:05:53;;;;;;;3.27;2.37;;;;;;;13.13;100.00;99276.72;5107130;28;20258;-74
2022/10/07 01:08:21;;;;;;;5.10;3.30;;;;;;;13.16;100.00;99271.22;5107084;28;20257;-74
2022/10/07 01:10:59;;;;;;;4.97;2.90;;;;;;;13.17;100.00;99276.47;5104817;28;20270;-74
2022/10/07 01:13:33;;;;;;;3.23;2.93;;;;;;;13.19;100.00;99276.34;5104776;28;20257;-74
2022/10/07 01:16:10;;;;;;;4.57;3.07;;;;;;;13.18;100.00;99270.19;5111344;28;20568;-74
2022/10/07 01:18:42;;;;;;;3.67;2.87;;;;;;;13.15;100.00;99262.41;5104611;28;20560;-74
2022/10/07 01:21:18;;;;;;;5.73;3.17;;;;;;;13.13;100.00;99260.78;5102775;28;20273;-74
2022/10/07 01:24:02;;;;;;;4.00;2.90;;;;;;;13.10;100.00;99255.69;5108175;28;20576;-74
2022/10/07 01:27:01;;;;;;;3.97;2.90;;;;;;;13.10;100.00;99258.34;5104495;28;20261;-74
2022/10/07 01:29:33;;;;;;;5.20;2.93;;;;;;;13.07;100.00;99253.22;5071777;28;20251;-74
2022/10/07 01:32:05;;;;;;;3.70;2.87;;;;;;;13.05;100.00;99248.00;5106203;28;20260;-74
2022/10/07 01:34:34;;;;;;;4.93;2.73;;;;;;;13.06;100.00;99243.53;5104287;28;20637;-74
2022/10/07 01:37:05;;;;;;;5.00;3.17;;;;;;;13.08;100.00;99242.50;5104308;28;20288;-74
2022/10/07 01:39:37;;;;;;;6.00;3.57;;;;;;;13.10;100.00;99240.63;5111067;28;20543;-73
2022/10/07 01:42:06;;;;;;;5.47;3.13;;;;;;;13.09;100.00;99243.38;5104213;28;20553;-73
2022/10/07 01:44:32;;;;;;;3.83;3.17;;;;;;;13.07;100.00;99240.78;5104084;28;20629;-74
2022/10/07 01:46:59;;;;;;;5.70;2.90;;;;;;;13.06;100.00;99239.09;5102576;28;20269;-74
2022/10/07 01:49:26;;;;;;;4.30;3.40;;;;;;;13.07;100.00;99226.69;5107655;28;20277;-74
2022/10/07 01:52:07;;;;;;;4.07;3.57;;;;;;;13.04;100.00;99226.88;5116656;28;20264;-74
2022/10/07 01:54:46;;;;;;;3.90;3.07;;;;;;;13.03;100.00;99222.50;5110501;28;20272;-74
2022/10/07 01:57:27;;;;;;;6.40;3.23;;;;;;;12.98;100.00;99224.59;5110549;28;20689;-74
2022/10/07 02:00:05;;;;;;;5.27;3.27;;;;;;;12.95;100.00;99220.31;5103876;28;20225;-74
2022/10/07 02:02:48;;;;;;;4.30;3.13;;;;;;;12.91;100.00;99217.94;5103610;28;20633;-74
2022/10/07 02:05:24;;;;;;;4.20;3.03;;;;;;;12.88;100.00;99218.97;5110689;28;20261;-74
2022/10/07 02:08:07;;;;;;;5.43;3.40;;;;;;;12.84;100.00;99217.44;5113913;28;20336;-74
2022/10/07 02:10:41;;;;;;;4.47;3.17;;;;;;;12.83;100.00;99213.06;5113528;28;20222;-74
2022/10/07 02:13:17;;;;;;;6.30;3.23;;;;;;;12.83;100.00;99212.25;5109211;28;20260;-74
2022/10/07 02:15:47;;;;;;;4.13;3.40;;;;;;;12.75;100.00;99206.53;5113955;28;20265;-74
2022/10/07 02:18:18;;;;;;;4.63;3.40;;;;;;;12.63;100.00;99204.63;5113881;28;20286;-73
2022/10/07 02:20:49;;;;;;;3.53;3.20;;;;;;;12.57;100.00;99203.22;5110334;28;20269;-73
2022/10/07 02:23:18;;;;;;;5.03;3.10;;;;;;;12.52;100.00;99199.97;5113100;28;20257;-73
2022/10/07 02:25:47;;;;;;;4.43;3.60;;;;;;;12.49;100.00;99194.88;5113834;28;20266;-73
2022/10/07 02:28:20;;;;;;;4.27;3.70;;;;;;;12.46;100.00;99200.34;5113365;28;20264;-74
2022/10/07 02:30:52;;;;;;;5.27;3.57;;;;;;;12.45;100.00;99203.06;5110340;28;20276;-74
2022/10/07 02:33:20;;;;;;;4.80;3.80;;;;;;;12.45;100.00;99192.47;5113705;28;20234;-73
2022/10/07 02:35:51;;;;;;;5.57;3.73;;;;;;;12.46;100.00;99188.91;5113582;28;20610;-74
2022/10/07 02:38:18;;;;;;;6.80;4.07;;;;;;;12.51;100.00;99186.78;5109779;28;20222;-74
2022/10/07 02:40:54;;;;;;;5.37;3.87;;;;;;;12.52;100.00;99186.72;5111148;28;20255;-73
2022/10/07 02:43:30;;;;;;;8.83;3.80;;;;;;;12.52;100.00;99193.81;5113361;28;20657;-73
2022/10/07 02:46:03;;;;;;;5.50;3.80;;;;;;;12.51;100.00;99178.84;5112862;28;20652;-73
2022/10/07 02:48:34;;;;;;;4.20;3.80;;;;;;;12.50;100.00;99179.78;5109834;28;20314;-75
2022/10/07 02:51:05;;;;;;;4.00;3.23;;;;;;;12.46;100.00;99176.47;5113352;28;20227;-75
2022/10/07 02:53:35;;;;;;;5.20;3.50;;;;;;;12.41;100.00;99169.75;5113184;28;20254;-73
2022/10/07 02:56:04;;;;;;;7.10;4.03;;;;;;;12.40;100.00;99173.34;5100877;28;20260;-76
2022/10/07 02:58:34;;;;;;;6.63;4.13;;;;;;;12.40;100.00;99176.00;5110455;28;20309;-73
2022/10/07 03:01:04;;;;;;;5.80;3.80;;;;;;;12.41;100.00;99164.44;5113161;28;20702;-74
2022/10/07 03:03:31;;;;;;;5.83;4.43;;;;;;;12.45;100.00;99171.25;5111344;28;20683;-76
2022/10/07 03:05:58;;;;;;;7.03;3.90;;;;;;;12.48;100.00;99165.78;5113006;28;20261;-73
2022/10/07 03:08:25;;;;;;;6.17;4.60;;;;;;;12.44;100.00;99162.47;5103486;28;20273;-73
2022/10/07 03:10:51;;;;;;;5.03;4.07;;;;;;;12.47;100.00;99162.25;5102276;28;20230;-73
2022/10/07 03:13:18;;;;;;;7.70;4.50;;;;;;;12.46;100.00;99154.44;5102227;28;20283;-75
2022/10/07 03:15:46;;;;;;;5.30;3.80;;;;;;;12.44;100.00;99159.81;5105158;28;20268;-75
2022/10/07 03:18:27;;;;;;;7.07;4.33;;;;;;;12.42;100.00;99155.53;5103932;28;20267;-75
2022/10/07 03:20:54;;;;;;;7.63;4.20;;;;;;;12.45;100.00;99161.50;5102272;28;20229;-74
2022/10/07 03:23:22;;;;;;;6.20;4.07;;;;;;;12.46;100.00;99154.44;5102809;28;20659;-74
2022/10/07 03:25:50;;;;;;;7.00;3.80;;;;;;;12.48;100.00;99156.00;5106028;28;20256;-74
2022/10/07 03:28:17;;;;;;;6.37;3.93;;;;;;;12.49;100.00;99151.56;5101975;28;20229;-75
2022/10/07 03:30:44;;;;;;;5.83;3.73;;;;;;;12.50;100.00;99147.97;5100432;28;20269;-74
2022/10/07 03:33:12;;;;;;;7.07;3.93;;;;;;;12.49;100.00;99146.28;5102515;28;20268;-74
2022/10/07 03:35:38;;;;;;;5.50;4.10;;;;;;;12.50;100.00;99146.19;5105770;28;20302;-74
2022/10/07 03:38:07;;;;;;;4.23;3.70;;;;;;;12.50;100.00;99138.22;5102151;28;20265;-74
2022/10/07 03:40:34;;;;;;;6.13;3.87;;;;;;;12.49;100.00;99143.63;5101987;28;20219;-74
2022/10/07 03:43:00;;;;;;;4.23;3.80;;;;;;;12.46;100.00;99142.00;5102394;28;20257;-74
2022/10/07 03:45:29;;;;;;;4.93;4.17;;;;;;;12.49;100.00;99140.97;5105741;28;20272;-74
2022/10/07 03:47:55;;;;;;;5.37;4.50;;;;;;;12.48;100.00;99133.97;5101957;28;20312;-74
2022/10/07 03:50:24;;;;;;;7.67;4.10;;;;;;;12.44;100.00;99137.72;5101936;28;20284;-74
2022/10/07 03:52:51;;;;;;;4.43;3.93;;;;;;;12.37;100.00;99126.66;5102384;28;20268;-74
2022/10/07 03:55:17;;;;;;;6.87;3.87;;;;;;;12.32;100.00;99130.53;5104270;28;20254;-75
2022/10/07 03:57:50;;;;;;;6.47;4.40;;;;;;;12.30;100.00;99137.72;5102027;28;20259;-74
2022/10/07 04:00:18;;;;;;;5.30;4.17;;;;;;;12.35;100.00;99133.00;5101858;28;20595;-75
2022/10/07 04:02:44;;;;;;;6.03;3.90;;;;;;;12.38;100.00;99127.50;5102748;28;20229;-75
2022/10/07 04:05:11;;;;;;;5.83;4.03;;;;;;;12.40;100.00;99120.34;5105148;28;20261;-75
2022/10/07 04:07:39;;;;;;;6.07;4.43;;;;;;;12.42;100.00;99118.44;5101469;28;20625;-75
2022/10/07 04:10:06;;;;;;;5.90;3.93;;;;;;;12.44;100.00;99121.81;5104300;28;20245;-74
2022/10/07 04:12:33;;;;;;;5.83;4.33;;;;;;;12.42;100.00;99113.13;5106814;28;20262;-74
2022/10/07 04:15:00;;;;;;;4.70;3.90;;;;;;;12.45;100.00;99112.91;5109458;28;20268;-74
2022/10/07 04:17:27;;;;;;;4.87;4.00;;;;;;;12.49;100.00;99120.63;5105840;28;20234;-75
2022/10/07 04:19:54;;;;;;;4.77;3.83;;;;;;;12.50;100.00;99114.38;5107283;28;20280;-72
2022/10/07 04:22:20;;;;;;;6.13;4.20;;;;;;;12.52;100.00;99114.25;5107770;28;20262;-73
2022/10/07 04:25:32;;;;;;;6.33;4.10;;;;;;;12.53;100.00;99121.28;5109401;28;20271;-75
2022/10/07 04:27:35;;;;;;;6.80;4.40;;;;;;;12.53;100.00;99110.69;5109292;28;20245;-73
2022/10/07 04:30:02;;;;;;;5.03;3.60;;;;;;;12.52;100.00;99114.25;5105481;28;20616;-74
2022/10/07 04:32:30;;;;;;;5.97;4.30;;;;;;;12.52;100.00;99106.28;5108597;28;20270;-73
2022/10/07 04:34:57;;;;;;;5.83;4.27;;;;;;;12.51;100.00;99109.91;5106745;28;20264;-73
2022/10/07 04:37:25;;;;;;;6.90;4.30;;;;;;;12.47;100.00;99106.56;5105439;28;20261;-74
2022/10/07 04:39:53;;;;;;;8.90;4.57;;;;;;;12.45;100.00;99107.63;5105309;28;20262;-74
2022/10/07 04:45:04;;;;;;;4.57;3.70;;;;;;;12.41;100.00;99091.06;5105505;28;20295;-74
2022/10/07 04:47:34;;;;;;;5.00;4.10;;;;;;;12.40;100.00;99091.16;5103414;28;20229;-75
2022/10/07 04:50:01;;;;;;;6.13;4.10;;;;;;;12.36;100.00;99092.28;5107026;28;20552;-74
2022/10/07 04:52:27;;;;;;;6.07;3.73;;;;;;;12.36;100.00;99087.00;5108009;28;20266;-75
2022/10/07 04:54:55;;;;;;;6.17;3.83;;;;;;;12.35;100.00;99090.59;5103363;28;20254;-75
2022/10/07 04:57:22;;;;;;;6.27;4.20;;;;;;;12.33;100.00;99092.47;5104896;28;20235;-75
2022/10/07 04:59:49;;;;;;;4.73;4.13;;;;;;;12.32;100.00;99085.47;5106610;28;20257;-74
2022/10/07 05:02:15;;;;;;;5.57;4.07;;;;;;;12.30;100.00;99088.19;5108048;28;20385;-74
2022/10/07 05:04:43;;;;;;;5.50;3.97;;;;;;;12.28;100.00;99084.78;5104933;28;20268;-74
2022/10/07 05:07:09;;;;;;;7.07;3.97;;;;;;;12.28;100.00;99083.97;5104795;28;20805;-74
2022/10/07 05:09:36;;;;;;;5.53;3.80;;;;;;;12.29;100.00;99080.38;5105977;28;20256;-74
2022/10/07 05:12:05;;;;;;;5.80;4.20;;;;;;;12.30;100.00;99079.41;5108410;28;20256;-74
2022/10/07 05:14:32;;;;;;;6.93;3.87;;;;;;;12.29;100.00;99083.00;5102967;28;20303;-74
2022/10/07 05:16:59;;;;;;;5.57;4.10;;;;;;;12.33;100.00;99079.22;5104779;28;20230;-74
2022/10/07 05:19:26;;;;;;;6.03;3.70;;;;;;;12.34;100.00;99081.78;5105698;28;20225;-73
2022/10/07 05:21:52;;;;;;;4.60;3.80;;;;;;;12.35;100.00;99072.88;5107578;28;20271;-74
2022/10/07 05:24:19;;;;;;;4.40;4.00;;;;;;;12.36;100.00;99074.56;5104678;28;20268;-75
2022/10/07 05:26:46;;;;;;;7.73;4.57;;;;;;;12.39;100.00;99081.47;5104555;28;20528;-74
2022/10/07 05:29:14;;;;;;;4.40;3.70;;;;;;;12.41;100.00;99071.66;5104939;28;20348;-74
2022/10/07 05:31:40;;;;;;;6.67;4.00;;;;;;;12.42;100.00;99076.84;5108039;28;20274;-74
2022/10/07 05:34:08;;;;;;;9.17;4.70;;;;;;;12.44;100.00;99084.72;5104577;28;20265;-74
2022/10/07 05:36:34;;;;;;;5.17;4.13;;;;;;;12.42;100.00;99073.34;5107408;28;20306;-74
2022/10/07 05:39:01;;;;;;;7.90;4.53;;;;;;;12.42;100.00;99076.84;5104042;28;20264;-75
2022/10/07 05:41:27;;;;;;;4.20;3.53;;;;;;;12.44;100.00;99072.31;5107042;28;20267;-74
2022/10/07 05:43:54;;;;;;;5.90;3.90;;;;;;;12.47;100.00;99068.63;5104604;28;20229;-74
2022/10/07 05:46:22;;;;;;;4.53;3.73;;;;;;;12.49;100.00;99072.03;5104379;28;20272;-74
2022/10/07 05:48:50;;;;;;;6.13;3.70;;;;;;;12.50;100.00;99081.69;5104134;28;20578;-74
2022/10/07 05:51:18;;;;;;;5.77;3.60;;;;;;;12.50;100.00;99063.13;5107747;28;20354;-74
2022/10/07 05:53:45;;;;;;;5.90;3.87;;;;;;;12.51;100.00;99064.81;5104201;28;20278;-73
2022/10/07 05:56:15;;;;;;;5.43;3.93;;;;;;;12.51;100.00;99064.81;5103839;28;20644;-74
2022/10/07 05:58:42;;;;;;;7.03;4.13;;;;;;;12.47;100.00;99063.31;5104128;28;20229;-74
2022/10/07 06:01:14;;;;;;;6.33;3.60;;;;;;;12.44;100.00;99063.50;5107551;28;20225;-75
2022/10/07 06:03:43;;;;;;;7.43;4.53;;;;;;;12.43;100.00;99061.78;5103760;28;20282;-75
2022/10/07 06:06:09;;;;;;;5.50;4.30;;;;;;;12.44;100.00;99063.50;5101891;28;20230;-74
2022/10/07 06:08:36;;;;;;;6.70;3.90;;;;;;;12.46;100.00;99056.31;5104792;28;20285;-75
2022/10/07 06:13:49;;;;;;;6.20;4.00;;;;;;;12.54;100.00;99054.03;5103660;28;20214;-75
2022/10/07 06:16:16;;;;;;;5.80;4.30;;;;;;;12.56;100.00;99052.13;5103606;28;20265;-75
2022/10/07 06:18:44;;;;;;;4.83;3.90;;;;;;;12.60;100.00;99054.47;5106705;28;20241;-74
2022/10/07 06:21:11;;;;;;;6.10;4.07;;;;;;;12.66;100.00;99055.91;5104509;28;20318;-74
2022/10/07 06:23:38;;;;;;;7.53;4.37;;;;;;;12.72;100.00;99060.84;5103417;28;20231;-74
2022/10/07 06:26:06;;;;;;;5.73;4.07;;;;;;;12.80;100.00;99055.88;5103546;28;20324;-74
2022/10/07 06:28:35;;;;;;;5.67;4.20;;;;;;;12.88;100.00;99054.47;5106734;28;20257;-74
2022/10/07 06:31:03;;;;;;;6.93;3.97;;;;;;;12.94;100.00;99053.19;5103512;28;20661;-74
2022/10/07 06:33:30;;;;;;;5.93;4.37;;;;;;;12.93;100.00;99059.47;5101457;28;20666;-74
2022/10/07 06:36:02;;;;;;;7.90;5.37;;;;;;;12.99;100.00;99059.97;5103140;28;20372;-74
2022/10/07 06:38:29;;;;;;;4.20;3.80;;;;;;;12.95;100.00;99052.28;5109845;28;20229;-74
2022/10/07 06:40:57;;;;;;;6.03;4.13;;;;;;;12.88;100.00;99053.59;5113121;28;20253;-74
2022/10/07 06:43:25;;;;;;;5.97;4.20;;;;;;;12.87;100.00;99058.06;5113418;28;20308;-74
2022/10/07 06:45:51;;;;;;;5.67;4.17;;;;;;;12.87;100.00;99059.84;5113180;28;20652;-74
2022/10/07 06:48:18;;;;;;;7.63;4.10;;;;;;;12.93;100.00;99056.81;5109753;28;20257;-74
2022/10/07 06:50:50;;;;;;;8.27;4.33;;;;;;;13.00;100.00;99058.16;5114449;28;20285;-74
2022/10/07 06:53:18;;;;;;;6.13;3.90;;;;;;;13.14;100.00;99056.31;5102909;28;20626;-75
2022/10/07 06:55:45;;;;;;;7.53;4.17;;;;;;;13.29;100.00;99051.81;5102226;28;20258;-74
2022/10/07 06:58:12;;;;;;;6.30;4.23;;;;;;;13.39;100.00;99063.53;5104765;28;20257;-74
2022/10/07 07:00:39;;;;;;;8.53;4.30;;;;;;;13.48;100.00;99066.44;5102730;28;20255;-74
2022/10/07 07:03:06;;;;;;;7.13;4.13;;;;;;;13.61;100.00;99058.50;5102616;28;20261;-74
2022/10/07 07:05:35;;;;;;;5.93;4.37;;;;;;;13.76;100.00;99060.97;5103227;28;20599;-74
2022/10/07 07:08:02;;;;;;;6.37;4.87;;;;;;;13.93;100.00;99065.16;5106432;28;20277;-74
2022/10/07 07:10:30;;;;;;;6.17;5.27;;;;;;;14.10;100.00;99067.50;5102514;28;20663;-74
2022/10/07 07:12:57;;;;;;;5.83;4.03;;;;;;;14.25;100.00;99055.84;5102572;28;20281;-74
2022/10/07 07:15:24;;;;;;;7.23;4.73;;;;;;;14.40;100.00;99057.44;5102933;28;20795;-73
2022/10/07 07:17:50;;;;;;;11.37;4.30;;;;;;;14.50;100.00;99058.50;5106241;28;20266;-74
2022/10/07 07:20:17;;;;;;;5.43;4.47;;;;;;;14.61;100.00;99061.25;5102699;28;20259;-73
2022/10/07 07:22:43;;;;;;;6.97;4.40;;;;;;;14.73;100.00;99065.72;5102357;28;20291;-73
2022/10/07 07:25:10;;;;;;;9.73;4.87;;;;;;;14.87;100.00;99060.25;5100573;28;20270;-74
2022/10/07 07:27:38;;;;;;;7.33;4.80;;;;;;;15.03;100.00;99056.38;5106107;28;20266;-74
2022/10/07 07:30:06;;;;;;;7.00;4.70;;;;;;;15.12;100.00;99046.88;5102502;28;20283;-73
2022/10/07 07:32:33;;;;;;;6.40;4.53;;;;;;;15.16;100.00;99054.50;5102270;28;20271;-74
2022/10/07 07:35:04;;;;;;;7.60;4.50;;;;;;;15.18;100.00;99047.28;5108722;28;20258;-73
2022/10/07 07:37:30;;;;;;;6.73;4.43;;;;;;;15.24;100.00;99046.81;5107218;28;20267;-73
2022/10/07 07:39:57;;;;;;;7.23;4.50;;;;;;;15.29;100.00;99049.16;5111018;28;20675;-74
2022/10/07 07:42:24;;;;;;;6.73;5.00;;;;;;;15.37;100.00;99046.78;5111329;28;20371;-74
2022/10/07 07:44:52;;;;;;;7.53;4.90;;;;;;;15.47;100.00;99050.47;5110785;28;20233;-74
2022/10/07 07:47:19;;;;;;;7.90;4.93;;;;;;;15.57;100.00;99043.50;5107578;28;20267;-74
2022/10/07 07:49:45;;;;;;;9.63;5.17;;;;;;;15.70;100.00;99038.97;5108868;28;20229;-74
2022/10/07 07:52:12;;;;;;;8.10;4.90;;;;;;;15.78;100.00;99039.22;5111272;28;20256;-74
2022/10/07 07:54:40;;;;;;;5.50;4.73;;;;;;;15.87;100.00;99035.84;5106574;28;20268;-73
2022/10/07 07:57:07;;;;;;;7.40;5.60;;;;;;;15.98;100.00;99040.22;5107172;28;20224;-74
2022/10/07 07:59:36;;;;;;;5.93;4.80;;;;;;;16.09;100.00;99036.75;5110417;28;20754;-74
2022/10/07 08:02:05;;;;;;;9.13;5.53;;;;;;;16.20;100.00;99034.94;5111089;28;20619;-74
2022/10/07 08:04:31;;;;;;;7.20;4.60;;;;;;;16.33;100.00;99030.34;5110889;28;20233;-74
2022/10/07 08:06:58;;;;;;;5.50;4.40;;;;;;;16.47;100.00;99023.97;5111156;28;20379;-74
2022/10/07 08:09:25;;;;;;;6.37;4.97;;;;;;;16.59;99.75;99026.50;5110386;28;20253;-74
2022/10/07 08:11:51;;;;;;;7.40;4.93;;;;;;;16.73;100.00;99036.97;5110837;28;20244;-74
2022/10/07 08:14:18;;;;;;;6.87;4.67;;;;;;;16.84;99.61;99022.75;5110966;28;20253;-74
2022/10/07 08:16:46;;;;;;;7.20;4.80;;;;;;;16.95;99.31;99020.91;5105384;28;20642;-74
2022/10/07 08:19:14;;;;;;;8.87;4.50;;;;;;;17.00;96.82;99012.53;5109976;28;20232;-72
2022/10/07 08:21:41;;;;;;;6.23;4.97;;;;;;;17.10;96.14;99017.00;5110997;28;20222;-74
2022/10/07 08:24:08;;;;;;;7.20;5.27;;;;;;;17.17;94.88;99017.31;5110929;28;20268;-74
2022/10/07 08:26:36;;;;;;;7.43;4.60;;;;;;;17.24;95.22;99018.53;5107257;28;20222;-73
2022/10/07 08:29:03;;;;;;;7.03;4.70;;;;;;;17.31;95.32;99015.22;5109896;28;20218;-71
2022/10/07 08:31:30;;;;;;;6.90;4.57;;;;;;;17.36;94.98;99013.03;5110588;28;20277;-72
2022/10/07 08:33:59;;;;;;;12.13;4.83;;;;;;;17.44;95.02;99007.91;5110734;28;20349;-73
2022/10/07 08:36:31;;;;;;;7.53;4.60;;;;;;;17.52;94.28;99008.16;5103905;28;20253;-73
2022/10/07 08:38:58;;;;;;;8.07;4.70;;;;;;;17.62;93.51;99014.41;5100117;28;20223;-71
2022/10/07 08:41:39;;;;;;;9.07;4.30;;;;;;;17.66;90.02;98994.47;5100051;28;20254;-73
2022/10/07 08:44:17;;;;;;;9.07;4.60;;;;;;;17.67;87.75;98993.47;5100613;28;20614;-73
2022/10/07 08:46:52;;;;;;;6.73;4.80;;;;;;;17.76;88.33;98995.38;5100871;28;20665;-73
2022/10/07 08:49:26;;;;;;;6.53;4.43;;;;;;;17.82;89.78;98994.88;5100190;28;20226;-73
2022/10/07 08:51:59;;;;;;;7.20;4.67;;;;;;;17.94;89.90;98999.19;5101286;28;20282;-75
2022/10/07 08:54:30;;;;;;;7.80;4.37;;;;;;;17.99;89.54;98991.59;5101279;28;20522;-74
2022/10/07 08:57:14;;;;;;;8.57;4.47;;;;;;;18.06;88.64;98987.44;5102168;28;20280;-74
2022/10/07 08:59:49;;;;;;;4.00;3.60;;;;;;;18.07;88.17;98978.41;5104553;28;20269;-74
2022/10/07 09:02:25;;;;;;;7.37;4.20;;;;;;;18.14;87.73;98976.91;5106288;28;20257;-74
2022/10/07 09:05:00;;;;;;;5.93;3.93;;;;;;;18.10;86.28;98970.09;5103634;28;20261;-74
2022/10/07 09:07:33;;;;;;;6.63;4.33;;;;;;;18.26;87.87;98981.19;5103651;28;20599;-74
2022/10/07 09:10:09;;;;;;;6.53;4.67;;;;;;;18.32;87.09;98978.03;5105471;28;20258;-74
2022/10/07 09:12:41;;;;;;;6.03;4.30;;;;;;;18.38;84.21;98966.78;5103484;28;20487;-74
2022/10/07 09:15:17;;;;;;;4.27;3.83;;;;;;;18.42;84.51;98972.72;5103421;28;20269;-74
2022/10/07 09:17:52;;;;;;;5.53;3.50;;;;;;;18.44;84.50;98960.88;5110067;28;20655;-75
2022/10/07 09:20:20;;;;;;;5.93;4.13;;;;;;;18.54;83.81;98961.75;5107956;28;20226;-74
2022/10/07 09:22:52;;;;;;;6.30;3.83;;;;;;;18.56;83.24;98961.63;5115615;28;20257;-75
2022/10/07 09:25:20;;;;;;;4.63;3.77;;;;;;;18.60;83.02;98960.38;5113103;28;20304;-72
2022/10/07 09:27:49;;;;;;;4.13;3.43;;;;;;;18.60;81.12;98950.50;5111536;28;20265;-73
2022/10/07 09:30:16;;;;;;;8.00;3.93;;;;;;;18.66;82.18;98955.31;5114233;28;20261;-74
2022/10/07 09:32:46;;;;;;;4.57;3.47;;;;;;;18.64;81.55;98946.56;5114152;28;20268;-73
2022/10/07 09:35:14;;;;;;;4.27;2.90;;;;;;;18.72;81.91;98949.41;5111652;28;20261;-73
2022/10/07 09:37:56;;;;;;;5.27;3.20;;;;;;;18.82;84.18;98952.97;5109682;28;20333;-73
2022/10/07 09:40:33;;;;;;;4.83;3.67;;;;;;;18.76;83.76;98942.81;5113636;28;20253;-73
2022/10/07 09:42:59;;;;;;;5.07;3.10;;;;;;;18.83;83.98;98935.91;5112284;28;20311;-74
2022/10/07 09:45:30;;;;;;;4.00;3.03;;;;;;;18.87;82.75;98926.63;5110232;28;20226;-73
2022/10/07 09:48:02;;;;;;;4.30;3.30;;;;;;;18.94;81.92;98932.25;5113753;28;20300;-72
2022/10/07 09:50:36;;;;;;;8.20;3.63;;;;;;;18.93;81.87;98936.78;5113463;28;20278;-73
2022/10/07 09:53:06;;;;;;;6.17;3.37;;;;;;;19.00;83.53;98943.28;5110239;28;20489;-75
2022/10/07 09:55:39;;;;;;;3.97;3.40;;;;;;;18.97;81.87;98938.19;5110246;28;20257;-73
2022/10/07 09:58:16;;;;;;;4.90;3.17;;;;;;;18.98;80.58;98929.19;5102611;28;20223;-73
2022/10/07 10:00:44;;;;;;;6.00;3.70;;;;;;;19.01;79.28;98925.38;5103898;28;20268;-73
2022/10/07 10:03:12;;;;;;;3.83;3.30;;;;;;;19.00;80.08;98932.56;5103654;28;20262;-73
2022/10/07 10:05:40;;;;;;;5.03;3.70;;;;;;;19.02;79.50;98925.22;5102514;28;20222;-72
2022/10/07 10:08:25;;;;;;;5.03;3.30;;;;;;;19.02;79.96;98922.53;5102298;28;20240;-73
2022/10/07 10:10:53;;;;;;;4.97;3.17;;;;;;;19.07;80.73;98925.66;5109226;28;20344;-71
2022/10/07 10:13:32;;;;;;;5.27;2.90;;;;;;;19.16;81.94;98927.50;5112411;28;20264;-72
2022/10/07 10:16:00;;;;;;;5.73;3.20;;;;;;;19.20;81.63;98920.03;5112752;28;20302;-71
2022/10/07 10:18:34;;;;;;;4.60;3.30;;;;;;;19.18;80.34;98914.81;5111035;28;20246;-72
2022/10/07 10:21:15;;;;;;;4.17;3.20;;;;;;;19.21;82.07;98919.91;5111108;28;20297;-72
2022/10/07 10:23:46;;;;;;;5.40;3.60;;;;;;;19.32;81.43;98921.63;5112804;28;20218;-72
2022/10/07 10:26:28;;;;;;;4.70;3.33;;;;;;;19.29;80.96;98909.34;5111621;28;20261;-72
2022/10/07 10:29:03;;;;;;;5.00;3.60;;;;;;;19.26;79.64;98901.56;5109252;28;20515;-72
2022/10/07 10:31:43;;;;;;;4.33;3.33;;;;;;;19.25;79.23;98894.50;5112446;28;20245;-71
2022/10/07 10:34:23;;;;;;;6.33;4.40;;;;;;;19.31;79.56;98893.09;5110739;28;20283;-73
2022/10/07 10:36:56;;;;;;;5.97;3.27;;;;;;;19.36;81.03;98885.47;5111186;28;20242;-72
2022/10/07 10:39:37;;;;;;;7.03;3.90;;;;;;;19.38;79.48;98888.88;5112270;28;20264;-72
2022/10/07 10:42:09;;;;;;;6.57;3.27;;;;;;;19.33;78.44;98875.88;5110495;28;20253;-73
2022/10/07 10:44:48;;;;;;;4.83;3.57;;;;;;;19.38;80.66;98883.50;5110164;28;20222;-72
2022/10/07 10:47:27;;;;;;;4.43;3.77;;;;;;;19.39;79.42;98879.84;5112242;28;20256;-72
2022/10/07 10:50:07;;;;;;;4.73;3.60;;;;;;;19.40;80.25;98876.16;5110457;28;20233;-73
2022/10/07 10:52:48;;;;;;;4.73;3.63;;;;;;;19.45;81.68;98880.09;5110738;28;20329;-72
2022/10/07 10:55:35;;;;;;;4.83;3.57;;;;;;;19.48;79.92;98863.75;5101314;28;20222;-73
2022/10/07 10:58:14;;;;;;;6.27;4.20;;;;;;;19.46;78.63;98864.88;5107408;28;20230;-73
2022/10/07 11:00:55;;;;;;;6.30;4.10;;;;;;;19.49;81.35;98860.06;5100228;28;20309;-73
2022/10/07 11:03:33;;;;;;;5.07;3.90;;;;;;;19.48;79.99;98852.16;5100474;28;20262;-73
2022/10/07 11:06:04;;;;;;;7.13;4.27;;;;;;;19.51;80.16;98847.34;5107240;28;20226;-73
2022/10/07 11:08:33;;;;;;;5.13;3.83;;;;;;;19.54;80.02;98851.56;5099793;28;20282;-73
2022/10/07 11:11:07;;;;;;;8.17;4.00;;;;;;;19.59;78.87;98852.84;5111390;28;20253;-73
2022/10/07 11:13:39;;;;;;;5.17;3.83;;;;;;;19.63;78.52;98845.38;5109479;28;20274;-73
2022/10/07 11:16:11;;;;;;;5.97;4.23;;;;;;;19.71;79.35;98849.00;5109943;28;20274;-73
2022/10/07 11:18:42;;;;;;;6.30;4.33;;;;;;;19.70;78.36;98833.88;5111107;28;20261;-73
2022/10/07 11:21:14;;;;;;;5.40;4.30;;;;;;;19.70;79.34;98836.56;5111117;28;20222;-73
2022/10/07 11:23:49;;;;;;;5.00;4.00;;;;;;;19.73;79.44;98828.25;5107134;28;20714;-73
2022/10/07 11:26:23;;;;;;;5.27;4.30;;;;;;;19.76;79.17;98830.63;5100950;28;20222;-74
2022/10/07 11:28:51;;;;;;;5.10;4.60;;;;;;;19.78;80.03;98823.28;5100871;28;20250;-73
2022/10/07 11:31:31;;;;;;;6.77;4.80;;;;;;;19.86;80.67;98823.41;5103224;28;20278;-73
2022/10/07 11:34:12;;;;;;;6.00;4.40;;;;;;;19.84;80.83;98822.72;5101275;28;20222;-73
2022/10/07 11:36:43;;;;;;;5.40;4.30;;;;;;;19.84;81.45;98814.66;5100736;28;20510;-73
2022/10/07 11:39:10;;;;;;;6.10;4.77;;;;;;;19.89;83.25;98820.44;5103217;28;20270;-73
2022/10/07 11:41:49;;;;;;;5.10;4.40;;;;;;;19.87;79.66;98811.66;5102906;28;20582;-73
2022/10/07 11:44:21;;;;;;;6.00;4.30;;;;;;;19.86;77.73;98798.38;5100775;28;20224;-73
2022/10/07 11:46:48;;;;;;;4.87;4.13;;;;;;;19.86;79.79;98804.63;5100973;28;20222;-73